Time;durP1;ratioP1;P1;durP2;ratioP2;P2;SDS_P1;SDS_P2;PMS_P1;PMS_P2;Temp;Humidity;BMP_temperature;BMP_pressure;BME280_temperature;BME280_humidity;BME280_pressure;Samples;Min_cycle;Max_cycle;Signal;HPM_P1;HPM_P2
2021/07/28 00:00:41;;;;;;;11.65;9.18;;;;;;;23.27;68.39;101198.66;5094095;28;20059;-62
2021/07/28 00:03:07;;;;;;;16.45;10.55;;;;;;;23.27;68.35;101201.31;5094247;28;20055;-62
2021/07/28 00:05:35;;;;;;;11.65;9.15;;;;;;;23.28;68.18;101202.16;5094268;28;20080;-61
2021/07/28 00:08:02;;;;;;;15.30;9.70;;;;;;;23.30;68.29;101195.63;5094055;28;20048;-62
2021/07/28 00:10:29;;;;;;;13.75;9.32;;;;;;;23.28;68.41;101194.13;5094119;28;20050;-62
2021/07/28 00:12:55;;;;;;;14.90;9.77;;;;;;;23.27;68.57;101201.31;5094039;28;20040;-64
2021/07/28 00:15:22;;;;;;;11.32;8.68;;;;;;;23.26;68.77;101193.41;5093858;28;20113;-62
2021/07/28 00:17:55;;;;;;;14.30;9.38;;;;;;;23.24;68.82;101200.78;5093705;28;20123;-62
2021/07/28 00:25:35;;;;;;;14.20;8.27;;;;;;;23.17;68.89;101224.66;5093830;28;20094;-62
2021/07/28 00:28:03;;;;;;;13.02;8.25;;;;;;;23.13;68.87;101224.13;5093595;28;20496;-61
2021/07/28 00:30:31;;;;;;;11.80;8.05;;;;;;;23.13;69.10;101221.47;5093730;28;20052;-62
2021/07/28 00:32:57;;;;;;;10.65;7.70;;;;;;;23.13;68.88;101221.47;5093689;28;20044;-62
2021/07/28 00:35:24;;;;;;;11.02;7.00;;;;;;;23.13;68.67;101217.91;5093616;28;20066;-62
2021/07/28 00:37:51;;;;;;;11.25;7.28;;;;;;;23.11;68.80;101215.41;5093676;28;20048;-62
2021/07/28 00:40:18;;;;;;;11.25;7.35;;;;;;;23.09;68.71;101222.75;5093316;28;20047;-61
2021/07/28 00:42:45;;;;;;;13.15;7.28;;;;;;;23.09;68.56;101212.03;5093750;28;20048;-62
2021/07/28 00:45:12;;;;;;;11.68;7.50;;;;;;;23.05;68.64;101223.25;5093289;28;20093;-62
2021/07/28 00:47:38;;;;;;;11.27;7.30;;;;;;;23.03;68.45;101222.53;5093293;28;20040;-62
2021/07/28 00:50:06;;;;;;;11.80;7.30;;;;;;;23.02;68.38;101213.69;5093228;28;20062;-62
2021/07/28 00:52:37;;;;;;;11.23;7.35;;;;;;;23.00;68.52;101215.66;5093267;28;20569;-61
2021/07/28 00:55:05;;;;;;;14.63;8.20;;;;;;;22.99;68.47;101209.50;5093166;28;20044;-62
2021/07/28 00:57:33;;;;;;;10.85;7.72;;;;;;;22.98;68.50;101206.94;5093333;28;20047;-62
2021/07/28 01:00:02;;;;;;;13.38;7.78;;;;;;;22.94;68.38;101203.78;5093187;28;20044;-61
2021/07/28 01:02:28;;;;;;;9.98;7.35;;;;;;;22.90;68.38;101202.38;5092960;28;20055;-62
2021/07/28 01:04:55;;;;;;;13.35;7.38;;;;;;;22.87;68.68;101197.34;5093104;28;20048;-62
2021/07/28 01:07:22;;;;;;;13.25;7.65;;;;;;;22.87;68.57;101199.19;5092963;28;20043;-62
2021/07/28 01:09:49;;;;;;;12.90;8.20;;;;;;;22.90;68.56;101193.53;5092960;28;20040;-61
2021/07/28 01:12:15;;;;;;;12.20;7.50;;;;;;;22.83;68.53;101190.66;5092811;28;20101;-61
2021/07/28 01:14:43;;;;;;;11.68;7.78;;;;;;;22.80;68.49;101191.81;5093049;28;20048;-62
2021/07/28 01:17:11;;;;;;;13.43;8.43;;;;;;;22.80;68.42;101180.25;5093140;28;20051;-61
2021/07/28 01:19:44;;;;;;;13.18;8.02;;;;;;;22.77;68.80;101175.22;5092688;28;20507;-61
2021/07/28 01:22:11;;;;;;;10.90;7.70;;;;;;;22.79;68.53;101179.41;5092795;28;20085;-62
2021/07/28 01:24:38;;;;;;;16.60;8.88;;;;;;;22.76;68.36;101178.88;5092738;28;20508;-63
2021/07/28 01:27:05;;;;;;;19.27;9.10;;;;;;;22.75;68.43;101177.19;5092665;28;20074;-61
2021/07/28 01:29:33;;;;;;;9.73;7.63;;;;;;;22.74;68.67;101164.81;5092750;28;20043;-61
2021/07/28 01:32:00;;;;;;;12.77;8.27;;;;;;;22.74;68.47;101172.84;5092407;28;20465;-62
2021/07/28 01:34:27;;;;;;;12.07;8.55;;;;;;;22.74;68.64;101172.84;5092176;28;20040;-63
2021/07/28 01:36:56;;;;;;;12.80;8.07;;;;;;;22.74;68.57;101179.03;5092232;28;20454;-61
2021/07/28 01:39:23;;;;;;;12.57;8.43;;;;;;;22.72;68.78;101169.50;5092506;28;20044;-62
2021/07/28 01:41:59;;;;;;;14.80;9.13;;;;;;;22.72;68.68;101164.16;5092614;28;20048;-62
2021/07/28 01:44:26;;;;;;;12.23;8.95;;;;;;;22.72;69.01;101158.78;5092454;28;20048;-62
2021/07/28 01:46:53;;;;;;;17.33;10.23;;;;;;;22.72;68.93;101158.78;5092727;28;20048;-61
2021/07/28 01:49:20;;;;;;;13.98;8.80;;;;;;;22.70;68.98;101150.06;5092233;28;20040;-61
2021/07/28 01:51:47;;;;;;;14.13;8.90;;;;;;;22.67;68.78;101151.22;5091112;28;20182;-62
2021/07/28 01:54:13;;;;;;;17.77;8.73;;;;;;;22.66;69.07;101146.88;5092228;28;20097;-62
2021/07/28 01:56:43;;;;;;;16.02;9.00;;;;;;;22.69;69.03;101151.06;5092266;28;20093;-62
2021/07/28 01:59:11;;;;;;;13.05;9.10;;;;;;;22.66;69.22;101141.50;5092225;28;20079;-62
2021/07/28 02:01:38;;;;;;;13.13;8.52;;;;;;;22.66;68.92;101145.06;5092208;28;20389;-62
2021/07/28 02:04:05;;;;;;;15.23;8.68;;;;;;;22.65;69.06;101137.16;5092168;28;20492;-62
2021/07/28 02:06:33;;;;;;;13.57;8.75;;;;;;;22.64;69.14;101135.50;5092477;28;20050;-62
2021/07/28 02:09:00;;;;;;;11.70;7.97;;;;;;;22.64;69.27;101139.00;5092198;28;20047;-64
2021/07/28 02:11:27;;;;;;;13.93;9.32;;;;;;;22.61;69.10;101138.47;5092098;28;20551;-62
2021/07/28 02:13:53;;;;;;;14.02;8.38;;;;;;;22.60;69.11;101134.97;5092123;28;20048;-61
2021/07/28 02:16:20;;;;;;;11.85;8.90;;;;;;;22.58;69.18;101128.94;5092161;28;20044;-62
2021/07/28 02:18:47;;;;;;;12.73;8.38;;;;;;;22.58;69.36;101126.25;5091964;28;20054;-62
2021/07/28 02:21:13;;;;;;;11.55;8.32;;;;;;;22.54;69.20;101126.72;5091928;28;20302;-62
2021/07/28 02:23:42;;;;;;;11.30;7.25;;;;;;;22.56;69.45;101128.22;5092169;28;20050;-62
2021/07/28 02:26:08;;;;;;;10.95;8.00;;;;;;;22.50;69.44;101127.03;5092103;28;20485;-61
2021/07/28 02:28:35;;;;;;;14.25;7.72;;;;;;;22.48;69.26;101128.19;5092200;28;20048;-62
2021/07/28 02:31:01;;;;;;;9.45;7.30;;;;;;;22.45;69.44;101134.69;5091888;28;20048;-62
2021/07/28 02:33:28;;;;;;;15.00;8.48;;;;;;;22.42;69.28;101124.28;5091989;28;20052;-62
2021/07/28 02:35:55;;;;;;;13.35;9.45;;;;;;;22.44;69.43;101126.81;5091926;28;20048;-62
2021/07/28 02:38:21;;;;;;;16.23;9.10;;;;;;;22.46;69.50;101130.16;5091727;28;20048;-62
2021/07/28 02:40:48;;;;;;;11.65;9.57;;;;;;;22.44;69.46;101133.00;5091982;28;20054;-61
2021/07/28 02:43:14;;;;;;;12.93;9.52;;;;;;;22.43;69.63;101133.16;5091910;28;20455;-61
2021/07/28 02:45:41;;;;;;;19.20;9.93;;;;;;;22.42;69.54;101134.97;5091955;28;20040;-62
2021/07/28 02:48:08;;;;;;;17.08;10.15;;;;;;;22.42;69.65;101144.84;5095540;28;20055;-62
2021/07/28 02:50:34;;;;;;;13.75;9.80;;;;;;;22.44;69.72;101140.19;5095709;28;20048;-62
2021/07/28 02:53:01;;;;;;;13.10;9.70;;;;;;;22.43;70.03;101135.84;5095522;28;20052;-61
2021/07/28 02:55:28;;;;;;;15.85;10.52;;;;;;;22.44;69.81;101132.19;5095444;28;20044;-62
2021/07/28 02:57:55;;;;;;;14.57;10.45;;;;;;;22.44;70.21;101130.31;5095701;28;20048;-64
2021/07/28 03:00:21;;;;;;;14.27;11.65;;;;;;;22.44;70.29;101137.53;5095271;28;20051;-62
2021/07/28 03:02:48;;;;;;;16.10;11.45;;;;;;;22.42;70.36;101134.16;5092555;28;20043;-62
2021/07/28 03:05:15;;;;;;;14.55;10.85;;;;;;;22.41;70.43;101136.00;5091472;28;20059;-62
2021/07/28 03:07:41;;;;;;;14.82;10.95;;;;;;;22.41;70.16;101135.16;5091557;28;20117;-62
2021/07/28 03:10:09;;;;;;;15.48;11.38;;;;;;;22.40;70.40;101131.66;5091825;28;20044;-62
2021/07/28 03:12:36;;;;;;;17.60;11.27;;;;;;;22.41;70.38;101127.97;5091969;28;20044;-62
2021/07/28 03:15:03;;;;;;;19.00;12.73;;;;;;;22.41;70.21;101121.78;5091543;28;20048;-62
2021/07/28 03:17:30;;;;;;;15.18;11.50;;;;;;;22.38;70.59;101120.25;5091601;28;20054;-62
2021/07/28 03:19:57;;;;;;;15.43;11.05;;;;;;;22.37;70.36;101123.91;5091671;28;20090;-62
2021/07/28 03:22:25;;;;;;;18.00;11.43;;;;;;;22.35;70.42;101117.88;5091717;28;20056;-62
2021/07/28 03:24:52;;;;;;;16.08;11.80;;;;;;;22.35;70.31;101118.69;5091535;28;20054;-62
2021/07/28 03:27:18;;;;;;;15.95;11.82;;;;;;;22.35;70.47;101118.69;5091551;28;20431;-62
2021/07/28 03:29:45;;;;;;;16.50;11.80;;;;;;;22.30;70.68;101126.34;5091422;28;20090;-62
2021/07/28 03:32:11;;;;;;;16.70;11.50;;;;;;;22.28;70.52;101125.69;5091390;28;20050;-61
2021/07/28 03:34:38;;;;;;;16.42;12.02;;;;;;;22.29;70.44;101123.84;5091409;28;20142;-61
2021/07/28 03:37:05;;;;;;;16.25;11.43;;;;;;;22.27;70.64;101120.47;5091150;28;20059;-62
2021/07/28 03:39:32;;;;;;;17.58;12.05;;;;;;;22.25;70.57;101117.13;5091204;28;20044;-61
2021/07/28 03:41:58;;;;;;;17.33;11.40;;;;;;;22.26;70.65;101108.09;5091271;28;20411;-62
2021/07/28 03:44:30;;;;;;;18.00;12.32;;;;;;;22.23;70.69;101106.56;5091389;28;20075;-62
2021/07/28 03:46:56;;;;;;;19.85;12.73;;;;;;;22.22;70.90;101102.22;5091252;28;20533;-62
2021/07/28 03:49:23;;;;;;;17.73;11.68;;;;;;;22.20;70.53;101108.72;5090933;28;20048;-62
2021/07/28 03:51:49;;;;;;;15.75;12.00;;;;;;;22.18;70.40;101109.72;5090966;28;20488;-62
2021/07/28 03:54:16;;;;;;;13.30;11.02;;;;;;;22.18;70.44;101109.72;5090915;28;20048;-61
2021/07/28 03:56:43;;;;;;;14.70;11.95;;;;;;;22.16;70.56;101113.53;5090622;28;20545;-62
2021/07/28 03:59:09;;;;;;;18.02;11.15;;;;;;;22.14;70.48;101110.16;5089750;28;20052;-62
2021/07/28 04:01:36;;;;;;;17.98;12.05;;;;;;;22.13;70.36;101114.69;5091219;28;20052;-62
2021/07/28 04:04:03;;;;;;;20.70;11.70;;;;;;;22.15;70.24;101114.53;5090652;28;20072;-62
2021/07/28 04:06:30;;;;;;;18.30;11.48;;;;;;;22.13;70.42;101116.50;5090617;28;20450;-62
2021/07/28 04:08:56;;;;;;;16.17;12.38;;;;;;;22.12;70.42;101121.03;5090790;28;20047;-62
2021/07/28 04:11:23;;;;;;;16.63;10.77;;;;;;;22.11;70.50;101116.66;5090643;28;20059;-62
2021/07/28 04:13:49;;;;;;;17.58;10.85;;;;;;;22.09;70.44;101113.28;5090578;28;20052;-62
2021/07/28 04:16:16;;;;;;;16.77;11.63;;;;;;;22.09;70.31;101113.28;5090398;28;20071;-62
2021/07/28 04:18:43;;;;;;;14.10;11.23;;;;;;;22.10;70.29;101112.31;5090619;28;20075;-62
2021/07/28 04:21:09;;;;;;;16.85;11.77;;;;;;;22.13;69.99;101111.16;5090259;28;20044;-63
2021/07/28 04:23:36;;;;;;;20.77;11.98;;;;;;;22.12;70.10;101109.50;5090267;28;20040;-62
2021/07/28 04:26:02;;;;;;;18.95;13.30;;;;;;;22.11;70.28;101105.16;5090278;28;20153;-62
2021/07/28 04:28:29;;;;;;;18.27;13.32;;;;;;;22.13;70.20;101106.66;5090187;28;20048;-62
2021/07/28 04:30:56;;;;;;;21.10;13.48;;;;;;;22.13;70.22;101104.00;5090192;28;20127;-62
2021/07/28 04:33:23;;;;;;;18.50;13.02;;;;;;;22.13;70.42;101108.47;5090218;28;20056;-62
2021/07/28 04:35:49;;;;;;;15.98;12.15;;;;;;;22.17;70.00;101104.53;5090083;28;20548;-62
2021/07/28 04:38:16;;;;;;;18.20;12.98;;;;;;;22.21;69.96;101105.03;5089775;28;20048;-62
2021/07/28 04:40:43;;;;;;;20.30;14.15;;;;;;;22.15;70.49;101099.31;5089940;28;20044;-62
2021/07/28 04:43:10;;;;;;;20.08;15.30;;;;;;;22.13;70.78;101101.31;5090080;28;20044;-64
2021/07/28 04:45:36;;;;;;;22.08;15.98;;;;;;;22.14;70.47;101100.34;5090101;28;20055;-62
2021/07/28 04:48:04;;;;;;;22.23;15.48;;;;;;;22.10;70.95;101106.97;5089907;28;20130;-62
2021/07/28 04:50:32;;;;;;;20.85;15.15;;;;;;;22.15;70.75;101107.34;5089800;28;20048;-61
2021/07/28 04:52:58;;;;;;;24.88;15.48;;;;;;;22.20;70.89;101109.56;5089689;28;20055;-61
2021/07/28 04:55:25;;;;;;;26.67;14.65;;;;;;;22.21;70.92;101111.25;5089705;28;20047;-62
2021/07/28 04:57:52;;;;;;;22.35;16.23;;;;;;;22.20;71.24;101109.56;5089539;28;20082;-62
2021/07/28 05:00:19;;;;;;;20.48;15.63;;;;;;;22.27;71.35;101110.63;5089802;28;20048;-62
2021/07/28 05:02:45;;;;;;;24.55;16.42;;;;;;;22.35;71.12;101099.97;5089464;28;20047;-62
2021/07/28 05:05:12;;;;;;;23.63;16.33;;;;;;;22.39;70.91;101107.75;5089305;28;20054;-62
2021/07/28 05:07:43;;;;;;;23.10;15.32;;;;;;;22.36;71.72;101100.84;5089436;28;20040;-62
2021/07/28 05:10:10;;;;;;;26.50;16.98;;;;;;;22.39;71.39;101110.41;5089209;28;20048;-62
2021/07/28 05:12:37;;;;;;;20.92;15.20;;;;;;;22.39;71.65;101111.25;5089508;28;20097;-62
2021/07/28 05:15:04;;;;;;;22.10;15.85;;;;;;;22.48;71.93;101115.66;5089227;28;20040;-62
2021/07/28 05:17:31;;;;;;;25.25;16.65;;;;;;;22.61;71.39;101111.72;5089512;28;20048;-64
2021/07/28 05:19:58;;;;;;;23.02;16.20;;;;;;;22.67;71.55;101116.44;5089042;28;20052;-62
2021/07/28 05:22:24;;;;;;;20.58;15.52;;;;;;;22.65;71.74;101113.94;5089247;28;20044;-64
2021/07/28 05:24:52;;;;;;;21.25;15.40;;;;;;;22.66;72.21;101114.75;5089252;28;20052;-61
2021/07/28 05:27:19;;;;;;;24.63;15.85;;;;;;;22.71;72.06;101125.00;5089520;28;20066;-62
2021/07/28 05:29:45;;;;;;;19.65;15.75;;;;;;;22.79;72.26;101119.69;5089179;28;20067;-62
2021/07/28 05:32:12;;;;;;;19.83;14.52;;;;;;;22.88;72.04;101116.09;5088922;28;20055;-62
2021/07/28 05:34:39;;;;;;;20.58;14.70;;;;;;;22.91;72.04;101121.09;5087680;28;20055;-62
2021/07/28 05:37:05;;;;;;;20.05;15.82;;;;;;;23.03;72.23;101116.31;5088827;28;20110;-62
2021/07/28 05:39:32;;;;;;;19.15;14.68;;;;;;;23.09;72.12;101117.53;5089402;28;20048;-62
2021/07/28 05:41:59;;;;;;;21.88;14.13;;;;;;;23.13;72.28;101121.53;5088795;28;20044;-62
2021/07/28 05:44:27;;;;;;;19.90;14.18;;;;;;;23.20;72.20;101114.59;5088975;28;20052;-62
2021/07/28 05:46:54;;;;;;;20.27;13.05;;;;;;;23.21;72.25;101126.13;5088751;28;20052;-62
2021/07/28 05:49:21;;;;;;;19.13;12.80;;;;;;;23.28;72.34;101136.03;5088979;28;20040;-61
2021/07/28 05:51:48;;;;;;;18.48;12.98;;;;;;;23.35;72.34;101140.75;5088963;28;20071;-62
2021/07/28 05:54:14;;;;;;;18.83;13.10;;;;;;;23.38;72.35;101140.44;5088561;28;20550;-62
2021/07/28 05:56:41;;;;;;;17.83;13.15;;;;;;;23.42;72.28;101145.28;5088859;28;20465;-63
2021/07/28 05:59:07;;;;;;;20.27;12.07;;;;;;;23.45;72.34;101139.63;5088458;28;20306;-62
2021/07/28 06:01:34;;;;;;;17.20;11.52;;;;;;;23.43;72.38;101143.47;5088747;28;20048;-62
2021/07/28 06:04:01;;;;;;;19.42;12.18;;;;;;;23.45;72.08;101138.78;5088703;28;20048;-63
2021/07/28 06:06:28;;;;;;;16.38;11.63;;;;;;;23.47;71.86;101148.31;5088770;28;20507;-62
2021/07/28 06:08:55;;;;;;;17.65;10.68;;;;;;;23.53;71.65;101143.31;5088581;28;20131;-62
2021/07/28 06:11:22;;;;;;;19.27;10.68;;;;;;;23.58;71.61;101151.69;5088498;28;20048;-62
2021/07/28 06:13:49;;;;;;;14.88;10.65;;;;;;;23.72;71.07;101147.56;5088566;28;20048;-62
2021/07/28 06:16:16;;;;;;;15.77;11.27;;;;;;;23.70;71.12;101153.09;5088600;28;20044;-62
2021/07/28 06:18:43;;;;;;;16.67;10.43;;;;;;;23.83;70.68;101154.47;5088354;28;20048;-63
2021/07/28 06:21:09;;;;;;;16.60;10.88;;;;;;;23.95;69.97;101159.38;5088864;28;20090;-62
2021/07/28 06:23:36;;;;;;;19.75;12.18;;;;;;;23.99;69.99;101151.84;5092634;28;20052;-63
2021/07/28 06:26:03;;;;;;;26.20;12.95;;;;;;;24.13;69.57;101161.06;5092725;28;20412;-62
2021/07/28 06:28:32;;;;;;;22.10;13.20;;;;;;;24.22;69.17;101157.38;5092875;28;20117;-62
2021/07/28 06:30:59;;;;;;;22.17;13.05;;;;;;;24.37;68.89;101151.38;5092640;28;20456;-62
2021/07/28 06:33:26;;;;;;;22.50;13.88;;;;;;;24.49;68.60;101154.53;5092311;28;20559;-62
2021/07/28 06:35:53;;;;;;;23.00;13.65;;;;;;;24.54;68.60;101157.56;5092531;28;20130;-62
2021/07/28 06:38:20;;;;;;;23.73;13.15;;;;;;;24.59;68.53;101152.53;5092473;28;20464;-62
2021/07/28 06:40:47;;;;;;;23.83;12.70;;;;;;;24.61;68.24;101151.34;5092310;28;20044;-63
2021/07/28 06:43:14;;;;;;;20.15;13.00;;;;;;;24.73;67.89;101151.84;5092089;28;20048;-62
2021/07/28 06:45:41;;;;;;;20.23;12.57;;;;;;;24.78;67.63;101151.34;5092422;28;20055;-62
2021/07/28 06:48:08;;;;;;;22.25;12.48;;;;;;;24.81;67.55;101151.03;5092212;28;20569;-62
2021/07/28 06:50:35;;;;;;;19.00;11.93;;;;;;;24.89;67.16;101142.94;5092198;28;20071;-62
2021/07/28 06:53:02;;;;;;;18.85;11.68;;;;;;;25.05;66.57;101138.53;5092263;28;20052;-62
2021/07/28 06:55:29;;;;;;;18.17;10.10;;;;;;;25.14;66.11;101137.50;5092289;28;20089;-62
2021/07/28 06:57:56;;;;;;;17.90;8.40;;;;;;;25.20;65.96;101136.78;5091941;28;20494;-62
2021/07/28 07:00:23;;;;;;;12.98;7.70;;;;;;;25.18;65.21;101143.34;5092074;28;20393;-62
2021/07/28 07:02:49;;;;;;;13.80;7.32;;;;;;;25.27;64.61;101145.00;5091771;28;20188;-62
2021/07/28 07:05:16;;;;;;;16.30;7.38;;;;;;;25.40;63.61;101152.53;5091658;28;20040;-63
2021/07/28 07:07:43;;;;;;;13.85;7.35;;;;;;;25.48;63.03;101136.34;5091732;28;20093;-62
2021/07/28 07:10:10;;;;;;;13.10;6.85;;;;;;;25.64;62.25;101140.00;5091838;28;20066;-62
2021/07/28 07:12:38;;;;;;;12.80;7.70;;;;;;;25.73;62.16;101136.22;5091448;28;20052;-62
2021/07/28 07:15:06;;;;;;;13.57;7.20;;;;;;;25.84;61.58;101137.66;5091992;28;20490;-62
2021/07/28 07:17:33;;;;;;;13.93;6.88;;;;;;;25.97;60.97;101134.41;5091957;28;20059;-62
2021/07/28 07:20:00;;;;;;;14.52;6.80;;;;;;;26.11;60.93;101132.81;5091428;28;20059;-62
2021/07/28 07:22:26;;;;;;;11.98;6.30;;;;;;;26.18;60.70;101128.38;5091521;28;20110;-64
2021/07/28 07:24:53;;;;;;;13.60;5.93;;;;;;;26.22;60.46;101126.97;5091418;28;20052;-62
2021/07/28 07:27:20;;;;;;;10.15;5.75;;;;;;;26.10;60.51;101131.97;5091408;28;20044;-64
2021/07/28 07:29:48;;;;;;;13.38;6.97;;;;;;;26.16;60.27;101125.03;5091464;28;20040;-62
2021/07/28 07:32:21;;;;;;;10.90;5.82;;;;;;;26.40;59.33;101118.59;5090648;28;20048;-62
2021/07/28 07:34:52;;;;;;;14.27;6.38;;;;;;;26.32;59.44;101124.06;5091038;28;20071;-62
2021/07/28 07:37:18;;;;;;;9.75;5.70;;;;;;;26.34;58.90;101122.03;5091256;28;20056;-63
2021/07/28 07:39:45;;;;;;;11.32;4.88;;;;;;;26.18;59.09;101125.69;5091538;28;20524;-62
2021/07/28 07:42:11;;;;;;;11.10;4.95;;;;;;;26.15;58.70;101123.38;5090925;28;20044;-63
2021/07/28 07:44:38;;;;;;;9.65;4.90;;;;;;;26.34;57.39;101122.03;5090994;28;20094;-63
2021/07/28 07:47:05;;;;;;;12.35;6.05;;;;;;;26.56;56.41;101121.16;5091016;28;20059;-63
2021/07/28 07:49:31;;;;;;;15.40;5.53;;;;;;;26.78;55.98;101118.59;5091068;28;20055;-64
2021/07/28 07:51:58;;;;;;;7.68;4.75;;;;;;;26.97;55.75;101119.03;5090889;28;20070;-63
2021/07/28 07:54:25;;;;;;;10.05;5.53;;;;;;;27.13;55.18;101112.63;5091133;28;20488;-63
2021/07/28 07:56:52;;;;;;;11.32;5.97;;;;;;;27.28;54.94;101121.53;5090876;28;20518;-63
2021/07/28 07:59:20;;;;;;;14.55;6.15;;;;;;;27.27;54.86;101127.94;5090962;28;20435;-63
2021/07/28 08:01:46;;;;;;;8.70;5.68;;;;;;;27.32;54.86;101127.38;5090674;28;20493;-64
2021/07/28 08:04:13;;;;;;;10.10;4.88;;;;;;;27.42;54.03;101124.41;5090523;28;20048;-63
2021/07/28 08:06:40;;;;;;;8.57;5.60;;;;;;;27.19;54.61;101123.47;5090952;28;20412;-62
2021/07/28 08:09:06;;;;;;;11.93;6.03;;;;;;;27.15;54.23;101121.38;5090939;28;20458;-63
2021/07/28 08:11:33;;;;;;;11.18;5.95;;;;;;;27.25;54.07;101124.59;5090926;28;20077;-63
2021/07/28 08:14:00;;;;;;;10.30;6.25;;;;;;;27.27;53.84;101124.41;5090315;28;20131;-63
2021/07/28 08:16:26;;;;;;;13.30;6.72;;;;;;;27.47;53.13;101114.72;5090342;28;20123;-62
2021/07/28 08:18:53;;;;;;;9.15;5.03;;;;;;;27.79;52.50;101109.06;5090498;28;20135;-63
2021/07/28 08:21:19;;;;;;;11.95;5.00;;;;;;;28.07;51.60;101114.53;5090330;28;20048;-63
2021/07/28 08:23:47;;;;;;;12.43;6.25;;;;;;;28.24;51.17;101107.00;5090238;28;20508;-63
2021/07/28 08:26:18;;;;;;;10.43;6.00;;;;;;;28.29;51.22;101109.94;5090371;28;20664;-63
2021/07/28 08:28:45;;;;;;;12.57;6.80;;;;;;;28.32;50.93;101106.84;5090290;28;20052;-62
2021/07/28 08:31:11;;;;;;;12.38;6.88;;;;;;;28.50;50.49;101103.66;5090159;28;20044;-63
2021/07/28 08:33:38;;;;;;;10.27;6.93;;;;;;;28.72;50.18;101110.91;5090158;28;20591;-62
2021/07/28 08:36:05;;;;;;;11.90;6.18;;;;;;;28.56;50.54;101106.63;5089933;28;20503;-63
2021/07/28 08:38:32;;;;;;;11.20;6.30;;;;;;;28.30;51.06;101103.53;5090201;28;20051;-63
2021/07/28 08:41:00;;;;;;;12.90;6.28;;;;;;;28.22;51.51;101106.34;5090147;28;20052;-62
2021/07/28 08:43:33;;;;;;;10.10;6.45;;;;;;;28.61;49.86;101104.97;5090335;28;20044;-62
2021/07/28 08:46:02;;;;;;;12.82;5.70;;;;;;;29.12;48.95;101101.13;5089829;28;20093;-63
2021/07/28 08:48:31;;;;;;;12.27;5.40;;;;;;;29.12;49.28;101103.81;5089902;28;20407;-63
2021/07/28 08:51:00;;;;;;;12.02;5.10;;;;;;;29.05;49.53;101096.72;5089775;28;20054;-63
2021/07/28 08:53:27;;;;;;;8.15;4.90;;;;;;;28.67;50.57;101095.28;5089787;28;20040;-63
2021/07/28 08:55:55;;;;;;;10.95;4.72;;;;;;;28.49;50.98;101095.75;5089948;28;20083;-63
2021/07/28 08:58:24;;;;;;;8.60;4.40;;;;;;;28.28;51.20;101096.66;5089710;28;20040;-64
2021/07/28 09:00:51;;;;;;;9.73;5.00;;;;;;;28.18;52.29;101097.00;5089960;28;20047;-64
2021/07/28 09:03:18;;;;;;;8.05;4.53;;;;;;;28.35;51.74;101098.38;5089412;28;20052;-63
2021/07/28 09:05:50;;;;;;;8.95;4.70;;;;;;;29.04;49.99;101101.31;5089658;28;20487;-63
2021/07/28 09:08:26;;;;;;;10.65;5.18;;;;;;;29.35;49.67;101099.16;5089812;28;20045;-63
2021/07/28 09:11:04;;;;;;;9.57;4.68;;;;;;;29.13;50.68;101102.78;5089524;28;20048;-63
2021/07/28 09:13:40;;;;;;;14.10;5.82;;;;;;;28.97;51.27;101103.13;5089377;28;20411;-63
2021/07/28 09:16:14;;;;;;;11.73;4.78;;;;;;;29.39;49.68;101103.94;5089456;28;20051;-63
2021/07/28 09:18:45;;;;;;;11.25;4.88;;;;;;;29.13;50.70;101102.78;5088919;28;20101;-63
2021/07/28 09:21:20;;;;;;;8.38;4.70;;;;;;;28.81;51.43;101104.28;5089387;28;20098;-64
2021/07/28 09:23:49;;;;;;;11.15;4.88;;;;;;;28.67;51.86;101112.31;5089173;28;20048;-63
2021/07/28 09:26:48;;;;;;;10.02;5.05;;;;;;;28.75;51.59;101114.03;5089045;28;20492;-63
2021/07/28 09:29:20;;;;;;;10.18;4.70;;;;;;;28.99;51.34;101110.00;5089134;28;20052;-63
2021/07/28 09:31:52;;;;;;;9.15;4.60;;;;;;;29.06;51.25;101107.31;5089103;28;20089;-63
2021/07/28 09:34:22;;;;;;;10.23;4.50;;;;;;;29.18;50.38;101107.59;5089013;28;20972;-63
2021/07/28 09:36:51;;;;;;;8.77;4.38;;;;;;;29.06;51.03;101110.03;5089269;28;20523;-63
2021/07/28 09:39:39;;;;;;;11.25;4.95;;;;;;;29.37;49.72;101099.78;5089233;28;20048;-63
2021/07/28 09:42:15;;;;;;;10.23;4.47;;;;;;;29.93;48.38;101096.81;5088787;28;20044;-63
2021/07/28 09:44:44;;;;;;;12.50;4.35;;;;;;;30.20;47.40;101088.69;5088727;28;20050;-63
2021/07/28 09:47:15;;;;;;;10.70;4.72;;;;;;;30.49;46.88;101089.31;5088943;28;20059;-63
2021/07/28 09:49:43;;;;;;;10.02;4.50;;;;;;;30.46;46.96;101081.56;5088995;28;20044;-64
2021/07/28 09:52:34;;;;;;;10.35;4.53;;;;;;;30.62;46.93;101075.72;5088838;28;20057;-64
2021/07/28 09:55:27;;;;;;;12.68;5.20;;;;;;;30.82;46.88;101082.13;5089176;28;20123;-64
2021/07/28 09:57:55;;;;;;;17.00;4.80;;;;;;;30.65;46.69;101082.59;5088344;28;20123;-64
2021/07/28 10:00:24;;;;;;;9.55;3.97;;;;;;;30.91;45.79;101076.28;5088454;28;20056;-63
2021/07/28 10:02:51;;;;;;;9.20;4.53;;;;;;;31.29;45.33;101079.25;5088733;28;20044;-63
2021/07/28 10:05:22;;;;;;;14.18;4.57;;;;;;;31.23;45.64;101072.84;5088879;28;20048;-63
2021/07/28 10:07:51;;;;;;;11.32;4.45;;;;;;;31.52;44.73;101074.13;5089013;28;20048;-63
2021/07/28 10:10:21;;;;;;;10.57;5.22;;;;;;;31.35;45.65;101070.25;5088424;28;20040;-63
2021/07/28 10:12:49;;;;;;;9.40;4.55;;;;;;;31.44;45.10;101060.84;5088750;28;20097;-63
2021/07/28 10:15:20;;;;;;;8.63;4.53;;;;;;;31.30;45.79;101064.66;5088733;28;20048;-63
2021/07/28 10:17:47;;;;;;;13.05;5.57;;;;;;;31.26;45.17;101066.97;5088606;28;20487;-65
2021/07/28 10:20:14;;;;;;;10.52;4.47;;;;;;;31.49;44.83;101061.00;5088158;28;20056;-64
2021/07/28 10:22:42;;;;;;;9.43;4.47;;;;;;;31.21;45.55;101058.66;5088499;28;20492;-64
2021/07/28 10:25:17;;;;;;;9.20;4.45;;;;;;;31.13;44.84;101053.50;5088507;28;20056;-64
2021/07/28 10:27:47;;;;;;;7.90;4.38;;;;;;;31.19;45.05;101050.75;5088400;28;20044;-63
2021/07/28 10:30:15;;;;;;;10.80;5.38;;;;;;;31.39;44.24;101044.38;5088294;28;20056;-63
2021/07/28 10:32:44;;;;;;;12.18;4.95;;;;;;;31.29;44.59;101042.13;5088422;28;20500;-63
2021/07/28 10:35:16;;;;;;;11.63;4.70;;;;;;;31.52;44.18;101035.31;5088985;28;20044;-64
2021/07/28 10:37:44;;;;;;;11.73;4.78;;;;;;;31.95;43.60;101034.59;5088405;28;20048;-63
2021/07/28 10:40:26;;;;;;;11.23;4.70;;;;;;;32.57;41.92;101036.50;5088492;28;20408;-64
2021/07/28 10:42:55;;;;;;;9.35;4.45;;;;;;;32.98;40.80;101034.97;5088369;28;20054;-64
2021/07/28 10:45:23;;;;;;;7.70;4.15;;;;;;;33.12;40.42;101032.09;5088371;28;20055;-61
2021/07/28 10:47:51;;;;;;;8.60;3.83;;;;;;;33.18;40.31;101028.44;5088248;28;20048;-61
2021/07/28 10:50:28;;;;;;;6.30;3.90;;;;;;;33.43;40.04;101031.00;5088217;28;20412;-62
2021/07/28 10:52:59;;;;;;;10.40;5.07;;;;;;;33.15;40.50;101023.44;5088173;28;20048;-61
2021/07/28 10:55:27;;;;;;;8.68;4.60;;;;;;;33.60;39.55;101022.16;5088666;28;20044;-61
2021/07/28 10:57:54;;;;;;;8.65;4.05;;;;;;;32.50;42.05;101027.59;5088243;28;20051;-61
2021/07/28 11:00:39;;;;;;;9.70;4.43;;;;;;;32.04;42.78;101027.00;5088127;28;20052;-61
2021/07/28 11:03:12;;;;;;;7.68;4.07;;;;;;;31.79;42.93;101030.53;5088060;28;20044;-61
2021/07/28 11:05:40;;;;;;;9.43;4.60;;;;;;;32.35;41.72;101022.53;5088325;28;20048;-61
2021/07/28 11:08:08;;;;;;;8.55;4.55;;;;;;;32.42;41.98;101027.88;5090234;28;20424;-62
2021/07/28 11:10:55;;;;;;;8.88;4.75;;;;;;;32.44;41.30;101029.31;5091939;28;20044;-61
2021/07/28 11:13:24;;;;;;;9.85;4.22;;;;;;;33.39;39.49;101026.28;5091473;28;20557;-61
2021/07/28 11:16:00;;;;;;;10.57;4.15;;;;;;;33.69;39.16;101016.16;5091820;28;20405;-62
2021/07/28 11:18:38;;;;;;;8.35;3.80;;;;;;;33.85;38.99;101022.00;5091946;28;20482;-62
2021/07/28 11:21:08;;;;;;;9.73;3.90;;;;;;;34.12;38.33;101010.63;5091496;28;20091;-61
2021/07/28 11:23:34;;;;;;;8.52;3.53;;;;;;;34.16;38.30;101012.63;5091708;28;20198;-64